createdAt,value
2022-10-17T00:01:19.984Z,13.14
2022-10-17T00:03:46.404Z,13.09
2022-10-17T00:06:15.081Z,13.19
2022-10-17T00:08:43.441Z,13.17
2022-10-17T00:11:16.712Z,13.16
2022-10-17T00:13:43.318Z,13.04
2022-10-17T00:16:09.830Z,13.07
2022-10-17T00:18:36.199Z,13.01
2022-10-17T00:21:02.677Z,13.03
2022-10-17T00:23:29.218Z,13.04
2022-10-17T00:26:03.704Z,13.01
2022-10-17T00:28:30.996Z,12.98
2022-10-17T00:31:03.056Z,12.97
2022-10-17T00:33:29.785Z,12.97
2022-10-17T00:36:13.289Z,12.91
2022-10-17T00:38:41.508Z,12.92
2022-10-17T00:41:15.170Z,12.89
2022-10-17T00:44:03.538Z,12.87
2022-10-17T00:46:35.589Z,12.84
2022-10-17T00:49:05.025Z,12.81
2022-10-17T00:51:38.350Z,12.79
2022-10-17T00:54:05.266Z,12.74
2022-10-17T00:56:32.014Z,12.79
2022-10-17T00:58:58.488Z,12.70
2022-10-17T01:01:25.373Z,12.79
2022-10-17T01:03:51.783Z,12.83
2022-10-17T01:06:18.143Z,12.78
2022-10-17T01:08:45.109Z,12.85
2022-10-17T01:11:27.768Z,12.85
2022-10-17T01:14:00.335Z,12.85
2022-10-17T01:16:44.712Z,12.85
2022-10-17T01:19:34.472Z,12.84
2022-10-17T01:22:14.955Z,12.84
2022-10-17T01:25:11.833Z,12.78
2022-10-17T01:28:12.770Z,12.84
2022-10-17T01:31:03.625Z,12.83
2022-10-17T01:33:41.296Z,12.77
2022-10-17T01:36:19.246Z,12.78
2022-10-17T01:39:11.484Z,12.82
2022-10-17T01:41:46.968Z,12.82
2022-10-17T01:44:36.800Z,12.83
2022-10-17T01:47:15.863Z,12.85
2022-10-17T01:49:45.196Z,12.87
2022-10-17T01:52:28.165Z,12.85
2022-10-17T01:55:10.381Z,12.88
2022-10-17T01:57:45.044Z,12.88
2022-10-17T02:00:16.855Z,12.90
2022-10-17T02:02:46.371Z,12.91
2022-10-17T02:05:12.976Z,12.91
2022-10-17T02:07:41.771Z,12.88
2022-10-17T02:10:19.298Z,12.88
2022-10-17T02:12:54.412Z,12.85
2022-10-17T02:15:46.558Z,12.91
2022-10-17T02:18:27.836Z,12.90
2022-10-17T02:21:02.890Z,12.98
2022-10-17T02:24:06.996Z,12.97
2022-10-17T02:27:01.573Z,12.98
2022-10-17T02:29:36.381Z,12.94
2022-10-17T02:32:13.747Z,12.96
2022-10-17T02:34:44.120Z,12.97
2022-10-17T02:37:14.924Z,12.96
2022-10-17T02:39:44.263Z,12.91
2022-10-17T02:42:13.253Z,12.90
2022-10-17T02:44:43.092Z,12.95
2022-10-17T02:47:18.696Z,12.98
2022-10-17T02:49:50.711Z,12.98
2022-10-17T02:52:26.256Z,12.97
2022-10-17T02:55:06.194Z,13.00
2022-10-17T02:57:46.455Z,12.96
2022-10-17T03:00:15.241Z,13.00
2022-10-17T03:02:47.984Z,12.98
2022-10-17T03:05:20.636Z,13.01
2022-10-17T03:07:47.074Z,13.03
2022-10-17T03:10:13.622Z,13.05
2022-10-17T03:12:39.943Z,13.06
2022-10-17T03:15:06.977Z,13.07
2022-10-17T03:17:33.568Z,13.07
2022-10-17T03:19:59.914Z,13.11
2022-10-17T03:22:26.642Z,13.12
2022-10-17T03:24:53.197Z,13.12
2022-10-17T03:27:19.568Z,13.08
2022-10-17T03:29:45.886Z,13.11
2022-10-17T03:32:12.386Z,13.08
2022-10-17T03:34:38.947Z,13.16
2022-10-17T03:37:05.326Z,13.14
2022-10-17T03:39:31.680Z,13.17
2022-10-17T03:41:58.046Z,13.17
2022-10-17T03:44:24.394Z,13.23
2022-10-17T03:46:50.685Z,13.20
2022-10-17T03:49:17.009Z,13.22
2022-10-17T03:51:43.320Z,13.24
2022-10-17T03:54:09.670Z,13.23
2022-10-17T03:56:35.982Z,13.36
2022-10-17T03:59:02.301Z,13.39
2022-10-17T04:01:28.619Z,13.43
2022-10-17T04:03:56.780Z,13.47
2022-10-17T04:06:23.736Z,13.51
2022-10-17T04:08:50.277Z,13.56
2022-10-17T04:11:20.628Z,13.59
2022-10-17T04:13:47.657Z,13.64
2022-10-17T04:16:16.716Z,13.66
2022-10-17T04:18:43.805Z,13.69
2022-10-17T04:21:11.265Z,13.71
2022-10-17T04:23:37.811Z,13.75
2022-10-17T04:26:05.155Z,13.78
2022-10-17T04:28:32.578Z,13.87
2022-10-17T04:31:01.176Z,13.90
2022-10-17T04:33:27.825Z,13.89
2022-10-17T04:36:10.137Z,13.92
2022-10-17T04:38:36.917Z,13.94
2022-10-17T04:41:05.872Z,13.96
2022-10-17T04:43:35.195Z,13.94
2022-10-17T04:46:03.106Z,13.92
2022-10-17T04:48:29.992Z,13.96
2022-10-17T04:50:58.730Z,13.93
2022-10-17T04:53:25.270Z,14.06
2022-10-17T04:55:51.590Z,14.00
2022-10-17T04:58:17.914Z,13.98
2022-10-17T05:00:44.293Z,13.99
2022-10-17T05:03:10.674Z,14.02
2022-10-17T05:05:38.451Z,14.11
2022-10-17T05:08:05.813Z,14.15
2022-10-17T05:10:39.758Z,14.18
2022-10-17T05:13:06.385Z,14.19
2022-10-17T05:15:32.983Z,14.21
2022-10-17T05:17:59.311Z,14.24
2022-10-17T05:20:26.377Z,14.33
2022-10-17T05:22:52.869Z,14.41
2022-10-17T05:25:19.408Z,14.41
2022-10-17T05:27:45.992Z,14.51
2022-10-17T05:30:12.510Z,14.47
2022-10-17T05:32:38.834Z,14.53
2022-10-17T05:35:05.729Z,14.58
2022-10-17T05:37:32.358Z,14.59
2022-10-17T05:39:58.683Z,14.49
2022-10-17T05:42:25.171Z,14.48
2022-10-17T05:44:51.533Z,14.55
2022-10-17T05:47:17.945Z,14.44
2022-10-17T05:49:48.719Z,14.47
2022-10-17T05:52:18.557Z,14.49
2022-10-17T05:54:44.882Z,14.56
2022-10-17T05:57:11.481Z,14.55
2022-10-17T05:59:37.867Z,14.59
2022-10-17T06:02:04.322Z,14.60
2022-10-17T06:04:30.657Z,14.67
2022-10-17T06:06:57.041Z,14.70
2022-10-17T06:09:24.174Z,14.70
2022-10-17T06:11:50.521Z,14.72
2022-10-17T06:14:16.921Z,14.77
2022-10-17T06:16:43.221Z,14.72
2022-10-17T06:19:09.645Z,14.84
2022-10-17T06:21:35.970Z,14.83
2022-10-17T06:24:02.291Z,14.82
2022-10-17T06:26:28.623Z,14.73
2022-10-17T06:28:55.640Z,14.76
2022-10-17T06:31:22.013Z,14.77
2022-10-17T06:33:48.304Z,14.75
2022-10-17T06:36:15.471Z,14.86
2022-10-17T06:38:41.893Z,14.89
2022-10-17T06:41:11.975Z,14.97
2022-10-17T06:43:38.909Z,15.04
2022-10-17T06:46:05.971Z,15.18
2022-10-17T06:48:33.099Z,15.26
2022-10-17T06:51:04.962Z,15.28
2022-10-17T06:53:34.521Z,15.33
2022-10-17T06:56:01.502Z,15.44
2022-10-17T06:58:32.059Z,15.48
2022-10-17T07:01:03.382Z,15.56
2022-10-17T07:03:30.201Z,15.62
2022-10-17T07:05:57.311Z,15.61
2022-10-17T07:08:24.021Z,15.63
2022-10-17T07:10:50.745Z,15.69
2022-10-17T07:13:17.983Z,15.72
2022-10-17T07:15:44.480Z,15.83
2022-10-17T07:18:10.972Z,15.92
2022-10-17T07:20:37.772Z,15.99
2022-10-17T07:23:04.736Z,16.03
2022-10-17T07:25:31.182Z,16.01
2022-10-17T07:27:58.436Z,15.98
2022-10-17T07:30:25.182Z,16.00
2022-10-17T07:32:53.750Z,16.03
2022-10-17T07:35:20.687Z,16.10
2022-10-17T07:37:47.214Z,16.13
2022-10-17T07:40:13.639Z,16.17
2022-10-17T07:45:11.162Z,16.17
2022-10-17T07:47:37.470Z,16.19
2022-10-17T07:50:05.448Z,16.20
2022-10-17T07:52:31.926Z,16.18
2022-10-17T07:54:59.085Z,16.18
2022-10-17T07:57:25.827Z,16.22
2022-10-17T07:59:52.177Z,16.26
2022-10-17T08:02:22.839Z,16.27
2022-10-17T08:04:49.720Z,16.33
2022-10-17T08:07:22.959Z,16.29
2022-10-17T08:09:51.911Z,16.26
2022-10-17T08:12:18.391Z,16.37
2022-10-17T08:14:44.703Z,16.32
2022-10-17T08:17:11.081Z,16.43
2022-10-17T08:19:40.757Z,16.49
2022-10-17T08:22:07.642Z,16.58
2022-10-17T08:24:34.511Z,16.58
2022-10-17T08:27:00.886Z,16.56
2022-10-17T08:29:27.358Z,16.61
2022-10-17T08:31:58.545Z,16.66
2022-10-17T08:34:27.917Z,16.67
2022-10-17T08:36:54.334Z,16.64
2022-10-17T08:39:20.783Z,16.66
2022-10-17T08:42:08.371Z,16.66
2022-10-17T08:44:40.735Z,16.67
2022-10-17T08:47:13.305Z,16.65
2022-10-17T08:49:46.870Z,16.65
2022-10-17T08:52:22.367Z,16.66
2022-10-17T08:54:49.863Z,16.62
2022-10-17T08:57:17.335Z,16.66
2022-10-17T08:59:45.366Z,16.66
2022-10-17T09:02:33.501Z,16.67
2022-10-17T09:04:59.857Z,16.68
2022-10-17T09:07:49.902Z,16.69
2022-10-17T09:10:32.980Z,16.68
2022-10-17T09:13:07.997Z,16.71
2022-10-17T09:15:41.637Z,16.71
2022-10-17T09:18:10.573Z,16.73
2022-10-17T09:20:46.183Z,16.68
2022-10-17T09:23:19.684Z,16.69
2022-10-17T09:25:50.459Z,16.68
2022-10-17T09:28:37.025Z,16.63
2022-10-17T09:31:26.557Z,16.68
2022-10-17T09:33:56.532Z,16.70
2022-10-17T09:36:32.091Z,16.72
2022-10-17T09:39:00.753Z,16.70
2022-10-17T09:41:51.202Z,16.75
2022-10-17T09:44:33.581Z,16.75
2022-10-17T09:47:15.084Z,16.77
2022-10-17T09:49:43.855Z,16.77
2022-10-17T09:52:25.212Z,16.79
2022-10-17T09:54:55.901Z,16.78
2022-10-17T09:57:23.052Z,16.80
2022-10-17T10:00:01.906Z,16.75
2022-10-17T10:02:30.755Z,16.80
2022-10-17T10:05:06.260Z,16.78
2022-10-17T10:07:38.807Z,16.76
2022-10-17T10:10:07.264Z,16.75
2022-10-17T10:12:36.357Z,16.71
2022-10-17T10:15:22.759Z,16.67
2022-10-17T10:17:49.110Z,16.52
2022-10-17T10:20:29.885Z,16.52
2022-10-17T10:23:15.561Z,16.51
2022-10-17T10:25:51.914Z,16.44
2022-10-17T10:28:18.664Z,16.47
2022-10-17T10:30:51.101Z,16.41
2022-10-17T10:33:21.004Z,16.50
2022-10-17T10:35:59.357Z,16.61
2022-10-17T10:38:25.805Z,16.55
2022-10-17T10:40:57.538Z,16.61
2022-10-17T10:43:46.876Z,16.66
2022-10-17T10:46:17.980Z,16.69
2022-10-17T10:48:57.631Z,16.72
2022-10-17T10:51:27.151Z,16.71
2022-10-17T10:54:10.910Z,16.78
2022-10-17T10:56:40.608Z,16.78
2022-10-17T10:59:31.735Z,16.85
2022-10-17T11:02:14.319Z,16.74
2022-10-17T11:04:44.254Z,16.89
2022-10-17T11:07:16.584Z,16.94
2022-10-17T11:09:58.417Z,17.01
2022-10-17T11:12:33.895Z,17.02
2022-10-17T11:15:31.780Z,17.04
2022-10-17T11:18:04.962Z,17.03
2022-10-17T11:20:51.527Z,17.04
2022-10-17T11:24:00.967Z,17.09
2022-10-17T11:26:31.795Z,17.04
2022-10-17T11:29:01.913Z,17.12
2022-10-17T11:31:36.388Z,17.09
2022-10-17T11:34:12.011Z,17.15
2022-10-17T11:36:43.736Z,17.14
2022-10-17T11:39:26.094Z,17.15
2022-10-17T11:42:04.108Z,17.17
2022-10-17T11:44:41.067Z,17.15
2022-10-17T11:47:13.917Z,17.14
2022-10-17T11:52:57.170Z,17.19
2022-10-17T11:55:26.485Z,17.22
2022-10-17T11:58:20.851Z,17.23
2022-10-17T12:01:26.084Z,17.29
2022-10-17T12:04:01.437Z,17.34
2022-10-17T12:06:43.043Z,17.43
2022-10-17T12:09:43.556Z,17.43
2022-10-17T12:12:09.991Z,17.54
2022-10-17T12:14:40.990Z,17.61
2022-10-17T12:17:32.834Z,17.64
2022-10-17T12:20:21.546Z,17.71
2022-10-17T12:22:49.667Z,17.74
2022-10-17T12:25:25.710Z,17.78
2022-10-17T12:28:25.005Z,17.79
2022-10-17T12:31:13.123Z,17.82
2022-10-17T12:33:50.055Z,17.77
2022-10-17T12:36:19.066Z,17.85
2022-10-17T12:38:49.874Z,17.85
2022-10-17T12:41:17.462Z,17.88
2022-10-17T12:46:44.694Z,17.87
2022-10-17T12:49:46.234Z,17.84
2022-10-17T12:52:31.033Z,17.86
2022-10-17T12:55:14.421Z,17.83
2022-10-17T12:57:59.484Z,17.90
2022-10-17T13:00:49.701Z,17.90
2022-10-17T13:03:30.461Z,17.86
2022-10-17T13:06:06.441Z,17.89
2022-10-17T13:08:42.802Z,17.94
2022-10-17T13:11:10.557Z,17.94
2022-10-17T13:13:49.052Z,17.90
2022-10-17T13:16:31.887Z,17.87
2022-10-17T13:18:59.994Z,17.82
2022-10-17T13:21:27.653Z,17.88
2022-10-17T13:23:54.491Z,17.85
2022-10-17T13:26:26.322Z,17.84
2022-10-17T13:29:11.813Z,17.84
2022-10-17T13:31:40.575Z,17.84
2022-10-17T13:34:17.774Z,17.77
2022-10-17T13:36:48.850Z,17.82
2022-10-17T13:39:23.049Z,17.80
2022-10-17T13:41:56.317Z,17.79
2022-10-17T13:44:27.324Z,17.83
2022-10-17T13:46:54.660Z,17.84
2022-10-17T13:49:41.191Z,17.84
2022-10-17T13:52:17.323Z,17.80
2022-10-17T13:54:47.194Z,17.83
2022-10-17T13:57:20.268Z,17.81
2022-10-17T13:59:50.166Z,17.80
2022-10-17T14:02:24.057Z,17.82
2022-10-17T14:05:20.807Z,17.81
2022-10-17T14:08:21.653Z,17.76
2022-10-17T14:10:47.023Z,17.77
2022-10-17T14:13:23.626Z,17.80
2022-10-17T14:15:51.184Z,17.79
2022-10-17T14:18:24.295Z,17.81
2022-10-17T14:23:43.713Z,17.71
2022-10-17T14:26:17.253Z,17.66
2022-10-17T14:28:46.909Z,17.63
2022-10-17T14:31:28.704Z,17.55
2022-10-17T14:33:55.542Z,17.43
2022-10-17T14:36:38.965Z,17.42
2022-10-17T14:39:11.890Z,17.42
2022-10-17T14:41:44.518Z,17.42
2022-10-17T14:44:24.018Z,17.47
2022-10-17T14:46:56.278Z,17.51
2022-10-17T14:49:34.309Z,17.57
2022-10-17T14:52:18.259Z,17.59
2022-10-17T14:54:47.286Z,17.68
2022-10-17T14:57:25.733Z,17.74
2022-10-17T14:59:54.560Z,17.77
2022-10-17T15:02:22.582Z,17.77
2022-10-17T15:04:48.968Z,17.85
2022-10-17T15:07:16.898Z,17.87
2022-10-17T15:09:44.750Z,17.86
2022-10-17T15:12:15.335Z,17.86
2022-10-17T15:14:41.674Z,17.82
2022-10-17T15:17:13.156Z,17.77
2022-10-17T15:19:39.519Z,17.73
2022-10-17T15:22:05.815Z,17.71
2022-10-17T15:24:32.183Z,17.70
2022-10-17T15:26:58.541Z,17.64
2022-10-17T15:29:24.850Z,17.55
2022-10-17T15:31:51.147Z,17.46
2022-10-17T15:34:17.471Z,17.46
2022-10-17T15:36:49.942Z,17.39
2022-10-17T15:39:16.249Z,17.32
2022-10-17T15:41:42.634Z,17.32
2022-10-17T15:44:08.958Z,17.28
2022-10-17T15:46:35.824Z,17.21
2022-10-17T15:49:05.028Z,17.20
2022-10-17T15:51:31.330Z,17.12
2022-10-17T15:53:57.653Z,17.07
2022-10-17T15:56:31.296Z,17.11
2022-10-17T15:58:58.207Z,17.05
2022-10-17T16:01:26.953Z,17.06
2022-10-17T16:03:53.986Z,17.05
2022-10-17T16:06:21.586Z,17.02
2022-10-17T16:08:48.382Z,16.95
2022-10-17T16:11:23.756Z,16.94
2022-10-17T16:13:53.075Z,16.85
2022-10-17T16:16:19.792Z,16.85
2022-10-17T16:18:46.214Z,16.80
2022-10-17T16:21:13.435Z,16.73
2022-10-17T16:23:40.037Z,16.66
2022-10-17T16:26:07.019Z,16.59
2022-10-17T16:28:34.305Z,16.51
2022-10-17T16:31:00.716Z,16.37
2022-10-17T16:33:27.103Z,16.37
2022-10-17T16:35:53.532Z,16.28
2022-10-17T16:38:19.834Z,16.21
2022-10-17T16:40:46.256Z,16.15
2022-10-17T16:43:13.163Z,16.09
2022-10-17T16:45:40.057Z,16.02
2022-10-17T16:48:06.526Z,15.99
2022-10-17T16:50:32.879Z,15.90
2022-10-17T16:52:59.189Z,15.82
2022-10-17T16:55:25.536Z,15.79
2022-10-17T16:57:51.873Z,15.71
2022-10-17T17:00:18.270Z,15.69
2022-10-17T17:02:47.606Z,15.59
2022-10-17T17:05:14.107Z,15.58
2022-10-17T17:07:40.438Z,15.53
2022-10-17T17:10:07.078Z,15.40
2022-10-17T17:12:34.725Z,15.35
2022-10-17T17:15:01.439Z,15.32
2022-10-17T17:17:44.198Z,15.21
2022-10-17T17:20:14.283Z,15.19
2022-10-17T17:22:40.575Z,15.20
2022-10-17T17:25:07.192Z,15.16
2022-10-17T17:27:33.637Z,15.09
2022-10-17T17:29:59.971Z,15.13
2022-10-17T17:32:26.332Z,15.08
2022-10-17T17:34:52.642Z,15.14
2022-10-17T17:37:19.024Z,15.15
2022-10-17T17:39:45.342Z,15.10
2022-10-17T17:42:11.705Z,15.13
2022-10-17T17:44:38.076Z,15.16
2022-10-17T17:47:04.554Z,15.19
2022-10-17T17:49:30.904Z,15.18
2022-10-17T17:51:57.427Z,15.16
2022-10-17T17:54:23.781Z,15.22
2022-10-17T17:56:50.102Z,15.21
2022-10-17T17:59:16.428Z,15.27
2022-10-17T18:01:43.451Z,15.31
2022-10-17T18:04:10.749Z,15.36
2022-10-17T18:06:38.539Z,15.38
2022-10-17T18:09:06.249Z,15.38
2022-10-17T18:11:32.862Z,15.36
2022-10-17T18:14:02.148Z,15.33
2022-10-17T18:16:30.853Z,15.26
2022-10-17T18:19:01.480Z,15.30
2022-10-17T18:21:31.144Z,15.30
2022-10-17T18:23:57.506Z,15.22
2022-10-17T18:26:23.816Z,15.32
2022-10-17T18:28:50.147Z,15.31
2022-10-17T18:31:21.303Z,15.33
2022-10-17T18:33:47.612Z,15.29
2022-10-17T18:36:15.254Z,15.32
2022-10-17T18:38:42.373Z,15.32
2022-10-17T18:41:14.436Z,15.28
2022-10-17T18:43:42.531Z,15.34
2022-10-17T18:46:16.850Z,15.31
2022-10-17T18:48:44.728Z,15.29
2022-10-17T18:51:12.643Z,15.34
2022-10-17T18:53:47.660Z,15.28
2022-10-17T18:56:14.357Z,15.20
2022-10-17T18:58:41.185Z,15.23
2022-10-17T19:01:13.757Z,15.24
2022-10-17T19:03:40.164Z,15.20
2022-10-17T19:06:07.951Z,15.18
2022-10-17T19:08:35.735Z,15.12
2022-10-17T19:11:10.579Z,15.12
2022-10-17T19:13:37.476Z,15.03
2022-10-17T19:16:15.589Z,15.01
2022-10-17T19:18:41.868Z,15.01
2022-10-17T19:21:10.263Z,14.97
2022-10-17T19:23:38.004Z,14.96
2022-10-17T19:26:08.874Z,14.99
2022-10-17T19:28:36.652Z,14.95
2022-10-17T19:31:04.757Z,14.97
2022-10-17T19:33:31.864Z,14.99
2022-10-17T19:36:00.732Z,14.96
2022-10-17T19:38:27.453Z,14.96
2022-10-17T19:40:54.184Z,14.95
2022-10-17T19:43:21.458Z,14.90
2022-10-17T19:45:58.979Z,14.94
2022-10-17T19:48:25.876Z,14.94
2022-10-17T19:50:52.524Z,14.94
2022-10-17T19:53:20.371Z,14.94
2022-10-17T19:55:46.657Z,14.90
2022-10-17T19:58:13.238Z,14.86
2022-10-17T20:00:46.519Z,14.92
2022-10-17T20:03:12.926Z,14.90
2022-10-17T20:05:39.372Z,14.99
2022-10-17T20:08:06.102Z,15.01
2022-10-17T20:10:33.642Z,15.01
2022-10-17T20:13:00.081Z,15.02
2022-10-17T20:15:26.488Z,15.03
2022-10-17T20:17:52.818Z,15.00
2022-10-17T20:20:19.195Z,15.02
2022-10-17T20:22:45.525Z,15.10
2022-10-17T20:25:11.834Z,15.11
2022-10-17T20:27:38.177Z,15.11
2022-10-17T20:30:05.067Z,15.15
2022-10-17T20:32:33.785Z,15.16
2022-10-17T20:35:01.534Z,15.18
2022-10-17T20:37:28.032Z,15.15
2022-10-17T20:40:16.497Z,15.16
2022-10-17T20:42:40.789Z,15.23
2022-10-17T20:45:07.337Z,15.25
2022-10-17T20:47:45.955Z,15.24
2022-10-17T20:50:14.597Z,15.20
2022-10-17T20:52:40.894Z,15.24
2022-10-17T20:55:07.538Z,15.30
2022-10-17T20:57:33.856Z,15.32
2022-10-17T21:00:00.148Z,15.30
2022-10-17T21:02:26.510Z,15.37
2022-10-17T21:04:52.822Z,15.33
2022-10-17T21:07:19.145Z,15.34
2022-10-17T21:09:45.667Z,15.34
2022-10-17T21:12:18.057Z,15.36
2022-10-17T21:14:52.554Z,15.38
2022-10-17T21:17:18.944Z,15.37
2022-10-17T21:19:45.272Z,15.33
2022-10-17T21:22:11.557Z,15.34
2022-10-17T21:24:37.935Z,15.31
2022-10-17T21:27:04.269Z,15.40
2022-10-17T21:29:30.613Z,15.31
2022-10-17T21:31:56.932Z,15.37
2022-10-17T21:34:23.421Z,15.36
2022-10-17T21:36:50.354Z,15.32
2022-10-17T21:39:17.005Z,15.31
2022-10-17T21:41:44.180Z,15.29
2022-10-17T21:44:13.682Z,15.30
2022-10-17T21:46:40.382Z,15.28
2022-10-17T21:49:06.795Z,15.27
2022-10-17T21:51:33.255Z,15.14
2022-10-17T21:53:59.644Z,15.12
2022-10-17T21:56:28.546Z,15.04
2022-10-17T21:58:55.531Z,14.99
2022-10-17T22:01:24.647Z,14.99
2022-10-17T22:03:53.345Z,15.03
2022-10-17T22:09:14.285Z,15.08
2022-10-17T22:11:41.126Z,15.07
2022-10-17T22:14:11.150Z,15.03
2022-10-17T22:16:38.355Z,15.04
2022-10-17T22:19:06.642Z,15.00
2022-10-17T22:21:35.171Z,15.04
2022-10-17T22:24:05.723Z,14.99
2022-10-17T22:26:33.914Z,14.98
2022-10-17T22:29:01.024Z,14.97
2022-10-17T22:31:27.638Z,15.01
2022-10-17T22:33:53.987Z,14.95
2022-10-17T22:36:20.359Z,14.88
2022-10-17T22:38:46.712Z,14.80
2022-10-17T22:41:13.074Z,14.76
2022-10-17T22:43:39.565Z,14.66
2022-10-17T22:46:06.974Z,14.55
2022-10-17T22:48:34.176Z,14.48
2022-10-17T22:51:01.369Z,14.41
2022-10-17T22:53:28.140Z,14.32
2022-10-17T22:55:57.855Z,14.39
2022-10-17T22:58:24.953Z,14.36
2022-10-17T23:00:52.299Z,14.34
2022-10-17T23:03:21.028Z,14.31
2022-10-17T23:05:48.084Z,14.27
2022-10-17T23:08:16.035Z,14.21
2022-10-17T23:10:42.345Z,14.15
2022-10-17T23:13:08.646Z,14.22
2022-10-17T23:15:35.178Z,14.21
2022-10-17T23:18:02.000Z,14.19
2022-10-17T23:20:29.780Z,14.20
2022-10-17T23:22:57.367Z,14.19
2022-10-17T23:25:24.104Z,14.25
2022-10-17T23:27:50.468Z,14.23
2022-10-17T23:30:16.953Z,14.27
2022-10-17T23:32:43.768Z,14.36
2022-10-17T23:35:10.250Z,14.36
2022-10-17T23:37:37.372Z,14.46
2022-10-17T23:40:05.359Z,14.47
2022-10-17T23:42:31.930Z,14.46
2022-10-17T23:44:58.305Z,14.47
2022-10-17T23:47:24.642Z,14.48
2022-10-17T23:49:50.967Z,14.44
2022-10-17T23:52:17.320Z,14.48
2022-10-17T23:54:43.668Z,14.40
2022-10-17T23:57:10.096Z,14.46
2022-10-17T23:59:36.464Z,14.50
